createdAt,value
2022-10-28T00:00:30.827Z,27.07
2022-10-28T00:01:30.928Z,27.06
2022-10-28T00:02:30.883Z,27.04
2022-10-28T00:03:30.828Z,27.07
2022-10-28T00:05:30.829Z,27.00
2022-10-28T00:06:30.831Z,27.06
2022-10-28T00:07:30.830Z,27.04
2022-10-28T00:08:30.831Z,26.99
2022-10-28T00:09:30.830Z,27.04
2022-10-28T00:10:30.828Z,27.04
2022-10-28T00:11:30.830Z,26.99
2022-10-28T00:12:30.829Z,27.12
2022-10-28T00:13:30.830Z,27.04
2022-10-28T00:14:30.830Z,27.09
2022-10-28T00:15:30.833Z,27.03
2022-10-28T00:16:30.830Z,27.09
2022-10-28T00:17:30.834Z,27.03
2022-10-28T00:18:30.852Z,27.06
2022-10-28T00:19:30.832Z,27.02
2022-10-28T00:20:30.831Z,27.04
2022-10-28T00:21:30.832Z,27.09
2022-10-28T00:22:30.831Z,27.02
2022-10-28T00:23:30.832Z,27.06
2022-10-28T00:24:30.831Z,26.94
2022-10-28T00:25:30.834Z,27.04
2022-10-28T00:26:30.832Z,27.04
2022-10-28T00:27:30.834Z,27.03
2022-10-28T00:28:30.834Z,26.97
2022-10-28T00:29:30.833Z,27.03
2022-10-28T00:31:30.842Z,27.04
2022-10-28T00:32:30.833Z,27.04
2022-10-28T00:33:30.835Z,27.03
2022-10-28T00:34:30.854Z,27.02
2022-10-28T00:35:30.836Z,27.04
2022-10-28T00:36:30.834Z,27.06
2022-10-28T00:37:30.838Z,27.02
2022-10-28T00:38:30.835Z,26.97
2022-10-28T00:39:30.835Z,27.00
2022-10-28T00:40:30.834Z,27.00
2022-10-28T00:41:30.837Z,27.03
2022-10-28T00:42:30.834Z,27.00
2022-10-28T00:43:30.839Z,27.02
2022-10-28T00:44:30.836Z,27.06
2022-10-28T00:45:30.836Z,27.02
2022-10-28T00:46:30.835Z,27.04
2022-10-28T00:47:30.835Z,27.02
2022-10-28T00:48:30.836Z,27.06
2022-10-28T00:49:30.837Z,27.06
2022-10-28T00:50:30.855Z,26.99
2022-10-28T00:51:30.837Z,27.00
2022-10-28T00:52:30.836Z,27.02
2022-10-28T00:53:30.837Z,27.03
2022-10-28T00:54:30.842Z,27.07
2022-10-28T00:55:30.839Z,27.09
2022-10-28T00:56:30.845Z,26.95
2022-10-28T00:57:30.838Z,27.00
2022-10-28T00:58:30.837Z,27.02
2022-10-28T00:59:30.841Z,26.99
2022-10-28T01:00:30.841Z,27.03
2022-10-28T01:01:30.978Z,26.97
2022-10-28T01:02:30.908Z,26.95
2022-10-28T01:03:30.840Z,27.00
2022-10-28T01:04:30.839Z,26.94
2022-10-28T01:05:30.847Z,26.97
2022-10-28T01:06:30.859Z,27.00
2022-10-28T01:07:30.840Z,27.04
2022-10-28T01:08:30.839Z,27.02
2022-10-28T01:09:30.852Z,27.04
2022-10-28T01:10:30.839Z,26.97
2022-10-28T01:11:30.840Z,27.04
2022-10-28T01:12:30.839Z,27.00
2022-10-28T01:13:30.842Z,27.03
2022-10-28T01:14:30.839Z,27.04
2022-10-28T01:15:30.844Z,26.97
2022-10-28T01:16:30.844Z,27.06
2022-10-28T01:17:30.842Z,27.07
2022-10-28T01:18:30.839Z,27.04
2022-10-28T01:19:30.847Z,27.00
2022-10-28T01:20:30.842Z,27.02
2022-10-28T01:21:30.843Z,27.02
2022-10-28T01:23:30.843Z,26.99
2022-10-28T01:24:30.842Z,26.99
2022-10-28T01:25:30.848Z,27.03
2022-10-28T01:26:30.843Z,26.99
2022-10-28T01:27:30.842Z,26.99
2022-10-28T01:28:30.844Z,27.00
2022-10-28T01:29:30.843Z,27.03
2022-10-28T01:30:30.845Z,26.99
2022-10-28T01:31:30.843Z,27.04
2022-10-28T01:32:30.847Z,27.04
2022-10-28T01:33:30.843Z,27.00
2022-10-28T01:34:30.844Z,26.97
2022-10-28T01:36:30.845Z,26.97
2022-10-28T01:37:30.846Z,26.99
2022-10-28T01:38:30.864Z,26.99
2022-10-28T01:39:30.844Z,26.91
2022-10-28T01:40:30.845Z,27.02
2022-10-28T01:41:30.847Z,26.91
2022-10-28T01:42:30.845Z,26.89
2022-10-28T01:43:30.845Z,26.99
2022-10-28T01:44:30.848Z,26.99
2022-10-28T01:45:30.846Z,26.91
2022-10-28T01:46:30.847Z,26.97
2022-10-28T01:47:30.846Z,27.00
2022-10-28T01:48:30.915Z,26.99
2022-10-28T01:49:30.846Z,26.94
2022-10-28T01:50:30.847Z,27.00
2022-10-28T01:51:30.847Z,26.99
2022-10-28T01:52:30.849Z,27.02
2022-10-28T01:53:30.847Z,27.03
2022-10-28T01:54:30.869Z,26.97
2022-10-28T01:55:30.846Z,26.97
2022-10-28T01:56:30.849Z,26.94
2022-10-28T01:57:30.850Z,27.03
2022-10-28T01:58:30.849Z,26.95
2022-10-28T01:59:30.846Z,27.00
2022-10-28T02:00:30.887Z,26.95
2022-10-28T02:01:31.097Z,26.94
2022-10-28T02:02:30.850Z,26.95
2022-10-28T02:03:30.849Z,26.95
2022-10-28T02:04:30.849Z,27.06
2022-10-28T02:05:30.851Z,26.95
2022-10-28T02:06:30.849Z,27.02
2022-10-28T02:07:30.850Z,26.95
2022-10-28T02:08:30.850Z,27.00
2022-10-28T02:09:30.850Z,27.00
2022-10-28T02:10:30.871Z,27.03
2022-10-28T02:11:30.849Z,27.00
2022-10-28T02:12:30.854Z,26.99
2022-10-28T02:13:30.850Z,26.92
2022-10-28T02:14:30.858Z,26.95
2022-10-28T02:15:30.850Z,26.91
2022-10-28T02:16:30.853Z,27.00
2022-10-28T02:17:30.851Z,26.97
2022-10-28T02:18:30.851Z,26.97
2022-10-28T02:19:30.851Z,26.94
2022-10-28T02:20:30.853Z,27.04
2022-10-28T02:21:30.852Z,27.02
2022-10-28T02:22:30.852Z,26.95
2022-10-28T02:23:30.852Z,26.95
2022-10-28T02:24:30.852Z,26.91
2022-10-28T02:25:30.853Z,27.00
2022-10-28T02:26:30.992Z,26.91
2022-10-28T02:27:30.851Z,26.95
2022-10-28T02:28:30.856Z,26.95
2022-10-28T02:29:30.852Z,26.95
2022-10-28T02:30:30.852Z,26.95
2022-10-28T02:31:30.853Z,26.95
2022-10-28T02:32:30.853Z,26.97
2022-10-28T02:33:30.905Z,26.97
2022-10-28T02:34:30.855Z,27.00
2022-10-28T02:35:30.852Z,26.94
2022-10-28T02:36:30.854Z,26.92
2022-10-28T02:37:30.854Z,27.00
2022-10-28T02:38:30.855Z,26.97
2022-10-28T02:39:30.855Z,27.03
2022-10-28T02:40:30.857Z,27.02
2022-10-28T02:41:30.856Z,26.97
2022-10-28T02:42:30.876Z,27.00
2022-10-28T02:43:30.854Z,26.97
2022-10-28T02:44:30.875Z,26.89
2022-10-28T02:45:30.866Z,26.95
2022-10-28T02:46:30.859Z,26.94
2022-10-28T02:47:30.868Z,27.00
2022-10-28T02:48:30.857Z,26.95
2022-10-28T02:49:30.856Z,27.03
2022-10-28T02:50:30.860Z,26.94
2022-10-28T02:51:30.865Z,26.99
2022-10-28T02:52:30.869Z,26.94
2022-10-28T02:53:30.875Z,26.92
2022-10-28T02:54:30.857Z,27.03
2022-10-28T02:55:30.857Z,26.99
2022-10-28T02:56:30.857Z,26.99
2022-10-28T02:57:30.857Z,26.94
2022-10-28T02:58:30.881Z,26.99
2022-10-28T02:59:30.856Z,26.97
2022-10-28T03:00:30.858Z,26.91
2022-10-28T03:01:30.967Z,26.95
2022-10-28T03:02:30.857Z,26.95
2022-10-28T03:03:30.859Z,27.00
2022-10-28T03:04:30.858Z,27.06
2022-10-28T03:05:30.858Z,27.02
2022-10-28T03:06:30.915Z,26.94
2022-10-28T03:07:30.857Z,26.99
2022-10-28T03:08:30.859Z,26.95
2022-10-28T03:09:30.858Z,27.02
2022-10-28T03:10:30.859Z,26.97
2022-10-28T03:11:30.859Z,26.95
2022-10-28T03:12:30.863Z,27.02
2022-10-28T03:13:30.863Z,26.94
2022-10-28T03:14:30.882Z,26.91
2022-10-28T03:15:30.860Z,26.94
2022-10-28T03:16:30.861Z,26.99
2022-10-28T03:17:30.860Z,26.92
2022-10-28T03:18:30.862Z,26.97
2022-10-28T03:19:30.861Z,26.95
2022-10-28T03:20:30.862Z,27.03
2022-10-28T03:21:30.862Z,26.91
2022-10-28T03:22:30.862Z,26.92
2022-10-28T03:23:30.860Z,26.92
2022-10-28T03:24:30.866Z,26.99
2022-10-28T03:25:30.861Z,26.94
2022-10-28T03:26:30.861Z,26.94
2022-10-28T03:27:30.862Z,26.95
2022-10-28T03:28:30.865Z,26.92
2022-10-28T03:29:30.862Z,26.95
2022-10-28T03:30:30.886Z,26.92
2022-10-28T03:31:30.861Z,26.95
2022-10-28T03:32:30.865Z,26.95
2022-10-28T03:33:30.862Z,26.91
2022-10-28T03:34:30.863Z,26.92
2022-10-28T03:35:30.862Z,26.94
2022-10-28T03:36:30.863Z,26.94
2022-10-28T03:37:30.862Z,26.92
2022-10-28T03:38:30.865Z,26.94
2022-10-28T03:39:30.864Z,27.00
2022-10-28T03:40:30.869Z,26.99
2022-10-28T03:41:30.868Z,27.02
2022-10-28T03:42:30.863Z,26.95
2022-10-28T03:43:30.864Z,26.99
2022-10-28T03:44:30.873Z,26.94
2022-10-28T03:45:30.882Z,26.95
2022-10-28T03:46:33.589Z,26.97
2022-10-28T03:47:30.867Z,26.94
2022-10-28T03:48:30.866Z,26.95
2022-10-28T03:49:30.865Z,26.92
2022-10-28T03:50:30.867Z,26.94
2022-10-28T03:51:30.865Z,27.00
2022-10-28T03:52:30.865Z,26.91
2022-10-28T03:53:31.455Z,27.02
2022-10-28T03:54:30.866Z,26.99
2022-10-28T03:55:30.865Z,26.94
2022-10-28T03:56:30.867Z,26.95
2022-10-28T03:57:30.866Z,26.94
2022-10-28T03:58:30.949Z,26.92
2022-10-28T03:59:30.871Z,26.92
2022-10-28T04:00:30.868Z,26.88
2022-10-28T04:01:31.006Z,26.92
2022-10-28T04:02:31.140Z,26.92
2022-10-28T04:03:30.867Z,27.02
2022-10-28T04:04:30.996Z,26.89
2022-10-28T04:05:30.867Z,26.92
2022-10-28T04:06:30.869Z,26.94
2022-10-28T04:07:30.868Z,26.94
2022-10-28T04:08:30.870Z,26.89
2022-10-28T04:09:30.869Z,26.95
2022-10-28T04:10:30.868Z,27.00
2022-10-28T04:11:30.868Z,26.94
2022-10-28T04:12:30.870Z,26.94
2022-10-28T04:13:30.869Z,27.02
2022-10-28T04:14:30.870Z,26.92
2022-10-28T04:15:30.869Z,26.95
2022-10-28T04:16:30.869Z,26.95
2022-10-28T04:17:30.870Z,27.02
2022-10-28T04:18:30.892Z,26.95
2022-10-28T04:19:30.871Z,26.94
2022-10-28T04:20:30.871Z,26.89
2022-10-28T04:21:30.869Z,26.89
2022-10-28T04:22:30.871Z,26.94
2022-10-28T04:23:30.870Z,26.94
2022-10-28T04:24:30.871Z,26.95
2022-10-28T04:25:30.884Z,26.87
2022-10-28T04:26:30.871Z,26.94
2022-10-28T04:27:30.870Z,26.89
2022-10-28T04:28:30.872Z,26.97
2022-10-28T04:29:30.871Z,26.91
2022-10-28T04:30:30.872Z,26.97
2022-10-28T04:31:30.875Z,26.95
2022-10-28T04:32:30.874Z,26.99
2022-10-28T04:33:30.871Z,26.94
2022-10-28T04:34:30.895Z,26.89
2022-10-28T04:35:30.874Z,26.95
2022-10-28T04:36:30.872Z,26.94
2022-10-28T04:37:30.873Z,27.02
2022-10-28T04:38:30.874Z,26.95
2022-10-28T04:39:30.874Z,26.97
2022-10-28T04:40:30.875Z,26.89
2022-10-28T04:41:30.875Z,27.00
2022-10-28T04:42:30.872Z,26.92
2022-10-28T04:43:30.872Z,26.99
2022-10-28T04:44:30.875Z,26.97
2022-10-28T04:45:30.874Z,26.92
2022-10-28T04:46:30.879Z,26.89
2022-10-28T04:47:30.873Z,26.89
2022-10-28T04:48:30.874Z,26.94
2022-10-28T04:49:34.230Z,26.95
2022-10-28T04:50:30.895Z,26.95
2022-10-28T04:51:30.875Z,26.91
2022-10-28T04:52:31.029Z,26.94
2022-10-28T04:53:30.874Z,27.00
2022-10-28T04:54:30.875Z,26.89
2022-10-28T04:55:30.874Z,26.89
2022-10-28T04:56:30.880Z,26.97
2022-10-28T04:57:30.875Z,26.94
2022-10-28T04:58:30.875Z,27.02
2022-10-28T04:59:30.875Z,26.99
2022-10-28T05:00:30.876Z,26.99
2022-10-28T05:01:30.963Z,26.94
2022-10-28T05:02:30.979Z,26.87
2022-10-28T05:03:30.876Z,26.92
2022-10-28T05:04:30.877Z,26.92
2022-10-28T05:05:30.877Z,26.99
2022-10-28T05:06:30.898Z,26.99
2022-10-28T05:07:30.877Z,26.97
2022-10-28T05:08:30.879Z,26.94
2022-10-28T05:09:30.880Z,26.92
2022-10-28T05:10:30.877Z,26.94
2022-10-28T05:11:30.877Z,26.99
2022-10-28T05:12:30.880Z,26.97
2022-10-28T05:13:30.879Z,26.99
2022-10-28T05:14:30.878Z,27.04
2022-10-28T05:15:30.880Z,27.04
2022-10-28T05:16:30.879Z,27.07
2022-10-28T05:17:30.879Z,27.06
2022-10-28T05:18:30.880Z,27.06
2022-10-28T05:19:30.877Z,27.09
2022-10-28T05:20:30.881Z,27.03
2022-10-28T05:21:30.881Z,27.12
2022-10-28T05:22:30.901Z,27.06
2022-10-28T05:23:31.165Z,27.07
2022-10-28T05:24:30.882Z,27.13
2022-10-28T05:25:30.880Z,27.10
2022-10-28T05:26:30.879Z,27.17
2022-10-28T05:27:30.883Z,27.14
2022-10-28T05:28:30.881Z,27.14
2022-10-28T05:29:33.339Z,27.21
2022-10-28T05:30:30.880Z,27.22
2022-10-28T05:31:30.880Z,27.14
2022-10-28T05:32:30.882Z,27.12
2022-10-28T05:33:30.882Z,27.18
2022-10-28T05:34:30.881Z,27.22
2022-10-28T05:35:30.881Z,27.27
2022-10-28T05:36:30.882Z,27.19
2022-10-28T05:37:30.882Z,27.21
2022-10-28T05:38:30.903Z,27.28
2022-10-28T05:39:30.882Z,27.25
2022-10-28T05:40:30.887Z,27.29
2022-10-28T05:41:33.041Z,27.22
2022-10-28T05:42:30.883Z,27.25
2022-10-28T05:43:30.885Z,27.25
2022-10-28T05:44:30.884Z,27.21
2022-10-28T05:45:30.887Z,27.22
2022-10-28T05:46:30.884Z,27.36
2022-10-28T05:47:30.888Z,27.36
2022-10-28T05:48:30.884Z,27.32
2022-10-28T05:49:30.888Z,27.34
2022-10-28T05:50:30.886Z,27.31
2022-10-28T05:51:30.887Z,27.32
2022-10-28T05:52:30.886Z,27.34
2022-10-28T05:53:30.889Z,27.29
2022-10-28T05:54:30.908Z,27.41
2022-10-28T05:55:30.889Z,27.34
2022-10-28T05:56:30.887Z,27.34
2022-10-28T05:57:30.891Z,27.41
2022-10-28T05:58:30.893Z,27.40
2022-10-28T05:59:30.889Z,27.49
2022-10-28T06:00:30.891Z,27.46
2022-10-28T06:01:30.978Z,27.41
2022-10-28T06:02:30.889Z,27.46
2022-10-28T06:03:31.369Z,27.44
2022-10-28T06:04:30.891Z,27.37
2022-10-28T06:05:30.903Z,27.40
2022-10-28T06:06:30.896Z,27.44
2022-10-28T06:07:30.892Z,27.47
2022-10-28T06:08:30.891Z,27.50
2022-10-28T06:09:30.893Z,27.51
2022-10-28T06:10:30.914Z,27.55
2022-10-28T06:11:29.361Z,27.46
2022-10-28T06:12:29.436Z,27.49
2022-10-28T06:13:29.363Z,27.49
2022-10-28T06:14:29.363Z,27.50
2022-10-28T06:15:29.367Z,27.54
2022-10-28T06:16:29.366Z,27.57
2022-10-28T06:17:29.367Z,27.59
2022-10-28T06:18:29.366Z,27.57
2022-10-28T06:19:29.369Z,27.54
2022-10-28T06:20:29.388Z,27.60
2022-10-28T06:21:29.375Z,27.55
2022-10-28T06:22:29.371Z,27.57
2022-10-28T06:23:29.376Z,27.59
2022-10-28T06:24:29.377Z,27.55
2022-10-28T06:25:29.383Z,27.60
2022-10-28T06:26:29.402Z,27.62
2022-10-28T06:27:29.383Z,27.60
2022-10-28T06:28:29.381Z,27.57
2022-10-28T06:29:29.384Z,27.60
2022-10-28T06:30:29.386Z,27.60
2022-10-28T06:31:29.389Z,27.57
2022-10-28T06:32:29.388Z,27.55
2022-10-28T06:33:29.399Z,27.65
2022-10-28T06:34:29.388Z,27.62
2022-10-28T06:35:29.392Z,27.66
2022-10-28T06:36:29.395Z,27.63
2022-10-28T06:37:29.398Z,27.65
2022-10-28T06:38:29.395Z,27.70
2022-10-28T06:39:29.399Z,27.70
2022-10-28T06:40:29.400Z,27.63
2022-10-28T06:41:29.399Z,27.75
2022-10-28T06:42:29.424Z,27.69
2022-10-28T06:43:29.406Z,27.65
2022-10-28T06:44:29.404Z,27.66
2022-10-28T06:45:29.406Z,27.77
2022-10-28T06:46:29.408Z,27.69
2022-10-28T06:47:30.922Z,27.74
2022-10-28T06:48:30.925Z,27.70
2022-10-28T06:49:30.925Z,27.77
2022-10-28T06:50:30.924Z,27.77
2022-10-28T06:51:30.928Z,27.74
2022-10-28T06:52:30.939Z,27.77
2022-10-28T06:53:30.935Z,27.77
2022-10-28T06:54:30.932Z,27.74
2022-10-28T06:55:30.943Z,27.77
2022-10-28T06:56:30.934Z,27.79
2022-10-28T06:57:30.936Z,27.78
2022-10-28T06:58:30.960Z,27.78
2022-10-28T06:59:30.940Z,27.78
2022-10-28T07:01:31.076Z,27.84
2022-10-28T07:02:31.202Z,27.85
2022-10-28T07:03:30.946Z,27.87
2022-10-28T07:04:30.947Z,27.78
2022-10-28T07:05:30.951Z,27.85
2022-10-28T07:06:30.954Z,27.72
2022-10-28T07:07:30.950Z,27.93
2022-10-28T07:08:30.951Z,27.88
2022-10-28T07:09:30.954Z,27.96
2022-10-28T07:10:30.953Z,27.81
2022-10-28T07:11:30.956Z,27.88
2022-10-28T07:12:30.956Z,27.97
2022-10-28T07:13:30.962Z,27.94
2022-10-28T07:14:30.980Z,27.74
2022-10-28T07:15:30.975Z,27.75
2022-10-28T07:16:30.963Z,27.79
2022-10-28T07:17:30.968Z,27.78
2022-10-28T07:18:30.970Z,27.84
2022-10-28T07:19:30.973Z,27.74
2022-10-28T07:20:30.968Z,27.94
2022-10-28T07:21:30.970Z,27.84
2022-10-28T07:22:30.974Z,27.87
2022-10-28T07:23:30.984Z,27.97
2022-10-28T07:24:30.982Z,27.81
2022-10-28T07:25:30.985Z,27.88
2022-10-28T07:26:30.981Z,27.84
2022-10-28T07:27:30.980Z,27.84
2022-10-28T07:28:30.980Z,27.90
2022-10-28T07:29:30.980Z,27.85
2022-10-28T07:30:31.007Z,27.87
2022-10-28T07:31:30.982Z,27.88
2022-10-28T07:32:30.984Z,27.93
2022-10-28T07:33:30.986Z,27.82
2022-10-28T07:34:30.987Z,27.93
2022-10-28T07:35:30.988Z,27.79
2022-10-28T07:36:30.987Z,27.90
2022-10-28T07:37:30.990Z,27.88
2022-10-28T07:38:30.990Z,27.96
2022-10-28T07:39:31.068Z,27.92
2022-10-28T07:40:30.992Z,27.87
2022-10-28T07:41:30.994Z,27.82
2022-10-28T07:42:30.993Z,27.90
2022-10-28T07:43:30.996Z,27.87
2022-10-28T07:44:30.995Z,27.87
2022-10-28T07:45:30.997Z,27.87
2022-10-28T07:46:31.018Z,27.93
2022-10-28T07:47:30.995Z,27.84
2022-10-28T07:48:30.997Z,27.84
2022-10-28T07:49:31.000Z,28.00
2022-10-28T07:50:30.998Z,27.90
2022-10-28T07:51:31.000Z,27.88
2022-10-28T07:52:30.996Z,27.92
2022-10-28T07:53:30.999Z,27.93
2022-10-28T07:54:31.000Z,27.92
2022-10-28T07:55:31.014Z,27.94
2022-10-28T07:56:30.999Z,27.93
2022-10-28T07:57:31.011Z,27.88
2022-10-28T07:58:30.998Z,27.97
2022-10-28T07:59:30.998Z,27.88
2022-10-28T08:00:30.996Z,27.92
2022-10-28T08:01:31.097Z,27.93
2022-10-28T08:02:31.057Z,27.93
2022-10-28T08:03:38.199Z,27.93
2022-10-28T08:04:30.997Z,27.88
2022-10-28T08:05:30.996Z,27.92
2022-10-28T08:06:30.993Z,27.85
2022-10-28T08:07:32.644Z,27.93
2022-10-28T08:08:30.987Z,27.93
2022-10-28T08:09:30.987Z,27.82
2022-10-28T08:10:30.986Z,27.97
2022-10-28T08:11:30.986Z,27.97
2022-10-28T08:12:30.982Z,27.96
2022-10-28T08:13:30.983Z,27.93
2022-10-28T08:14:30.981Z,27.90
2022-10-28T08:15:30.982Z,27.88
2022-10-28T08:16:30.981Z,27.92
2022-10-28T08:17:30.981Z,27.94
2022-10-28T08:18:30.998Z,27.88
2022-10-28T08:19:30.978Z,27.97
2022-10-28T08:20:30.979Z,27.94
2022-10-28T08:21:30.978Z,27.90
2022-10-28T08:22:30.976Z,27.96
2022-10-28T08:23:30.978Z,27.96
2022-10-28T08:24:30.981Z,27.94
2022-10-28T08:25:30.979Z,27.94
2022-10-28T08:26:30.978Z,27.97
2022-10-28T08:27:30.981Z,27.93
2022-10-28T08:28:30.981Z,28.02
2022-10-28T08:29:30.982Z,27.93
2022-10-28T08:30:40.300Z,27.99
2022-10-28T08:31:30.982Z,27.97
2022-10-28T08:32:30.985Z,27.94
2022-10-28T08:33:30.987Z,27.92
2022-10-28T08:34:31.004Z,27.90
2022-10-28T08:35:30.985Z,27.96
2022-10-28T08:36:30.985Z,27.94
2022-10-28T08:37:31.132Z,27.96
2022-10-28T08:38:30.989Z,27.97
2022-10-28T08:39:30.989Z,28.00
2022-10-28T08:40:30.988Z,27.94
2022-10-28T08:41:31.005Z,27.99
2022-10-28T08:42:31.043Z,27.96
2022-10-28T08:43:52.648Z,27.94
2022-10-28T08:44:30.996Z,27.90
2022-10-28T08:45:30.995Z,27.94
2022-10-28T08:46:30.994Z,27.97
2022-10-28T08:47:30.997Z,27.99
2022-10-28T08:48:30.999Z,27.99
2022-10-28T08:49:31.003Z,27.92
2022-10-28T08:50:31.027Z,27.93
2022-10-28T08:51:31.001Z,27.99
2022-10-28T08:52:31.004Z,27.96
2022-10-28T08:53:31.005Z,27.99
2022-10-28T08:54:31.005Z,27.96
2022-10-28T08:55:31.005Z,27.94
2022-10-28T08:56:31.007Z,27.90
2022-10-28T08:57:31.008Z,27.93
2022-10-28T08:58:31.008Z,27.96
2022-10-28T08:59:31.011Z,27.93
2022-10-28T09:00:31.008Z,27.94
2022-10-28T09:01:31.215Z,27.90
2022-10-28T09:02:31.017Z,27.94
2022-10-28T09:03:32.478Z,27.92
2022-10-28T09:04:31.014Z,27.90
2022-10-28T09:05:31.013Z,27.99
2022-10-28T09:06:31.034Z,27.85
2022-10-28T09:07:31.015Z,27.94
2022-10-28T09:08:31.014Z,27.99
2022-10-28T09:09:31.017Z,27.96
2022-10-28T09:10:31.017Z,27.87
2022-10-28T09:11:31.018Z,27.88
2022-10-28T09:12:31.018Z,27.92
2022-10-28T09:13:31.021Z,27.96
2022-10-28T09:14:31.019Z,27.92
2022-10-28T09:15:31.112Z,27.93
2022-10-28T09:16:31.022Z,27.87
2022-10-28T09:17:31.022Z,27.92
2022-10-28T09:18:31.022Z,27.88
2022-10-28T09:19:31.023Z,27.90
2022-10-28T09:20:31.026Z,27.85
2022-10-28T09:21:31.025Z,27.87
2022-10-28T09:22:31.051Z,27.87
2022-10-28T09:23:31.030Z,27.79
2022-10-28T09:24:31.028Z,27.82
2022-10-28T09:25:31.031Z,27.93
2022-10-28T09:26:31.029Z,27.85
2022-10-28T09:27:31.036Z,27.79
2022-10-28T09:28:31.030Z,27.81
2022-10-28T09:29:31.031Z,27.81
2022-10-28T09:30:31.029Z,27.84
2022-10-28T09:31:31.032Z,27.81
2022-10-28T09:32:31.036Z,27.74
2022-10-28T09:33:31.033Z,27.81
2022-10-28T09:34:31.034Z,27.82
2022-10-28T09:35:31.036Z,27.72
2022-10-28T09:36:31.035Z,27.75
2022-10-28T09:37:31.037Z,27.77
2022-10-28T09:38:31.057Z,27.70
2022-10-28T09:39:31.040Z,27.78
2022-10-28T09:40:31.036Z,27.72
2022-10-28T09:41:31.040Z,27.69
2022-10-28T09:42:31.106Z,27.75
2022-10-28T09:43:31.039Z,27.79
2022-10-28T09:44:31.040Z,27.70
2022-10-28T09:45:31.040Z,27.77
2022-10-28T09:46:34.603Z,27.63
2022-10-28T09:47:31.043Z,27.67
2022-10-28T09:48:31.042Z,27.74
2022-10-28T09:49:31.042Z,27.65
2022-10-28T09:50:31.049Z,27.60
2022-10-28T09:51:31.044Z,27.74
2022-10-28T09:52:31.045Z,27.72
2022-10-28T09:53:35.814Z,27.70
2022-10-28T09:54:31.070Z,27.67
2022-10-28T09:55:31.048Z,27.66
2022-10-28T09:56:31.047Z,27.65
2022-10-28T09:57:31.048Z,27.65
2022-10-28T09:58:31.051Z,27.62
2022-10-28T09:59:31.050Z,27.66
2022-10-28T10:00:31.052Z,27.59
2022-10-28T10:01:31.076Z,27.54
2022-10-28T10:02:31.105Z,27.59
2022-10-28T10:03:31.052Z,27.62
2022-10-28T10:04:31.053Z,27.55
2022-10-28T10:05:31.051Z,27.54
2022-10-28T10:06:31.051Z,27.50
2022-10-28T10:07:31.053Z,27.60
2022-10-28T10:08:31.053Z,27.59
2022-10-28T10:09:31.055Z,27.59
2022-10-28T10:10:31.079Z,27.50
2022-10-28T10:11:31.053Z,27.57
2022-10-28T10:12:31.055Z,27.54
2022-10-28T10:13:31.056Z,27.57
2022-10-28T10:14:31.058Z,27.51
2022-10-28T10:15:31.058Z,27.62
2022-10-28T10:16:31.057Z,27.55
2022-10-28T10:17:31.057Z,27.51
2022-10-28T10:18:31.057Z,27.54
2022-10-28T10:19:31.059Z,27.51
2022-10-28T10:20:31.065Z,27.51
2022-10-28T10:21:31.058Z,27.55
2022-10-28T10:22:31.060Z,27.54
2022-10-28T10:23:31.178Z,27.54
2022-10-28T10:24:31.062Z,27.49
2022-10-28T10:25:31.122Z,27.51
2022-10-28T10:26:31.085Z,27.49
2022-10-28T10:27:31.060Z,27.47
2022-10-28T10:28:31.065Z,27.39
2022-10-28T10:29:31.066Z,27.51
2022-10-28T10:30:31.064Z,27.44
2022-10-28T10:31:31.064Z,27.50
2022-10-28T10:32:31.064Z,27.46
2022-10-28T10:33:31.064Z,27.47
2022-10-28T10:34:31.078Z,27.46
2022-10-28T10:35:31.070Z,27.44
2022-10-28T10:36:31.069Z,27.40
2022-10-28T10:37:31.065Z,27.44
2022-10-28T10:38:31.067Z,27.47
2022-10-28T10:39:31.066Z,27.46
2022-10-28T10:40:31.075Z,27.46
2022-10-28T10:41:31.070Z,27.37
2022-10-28T10:42:31.093Z,27.40
2022-10-28T10:43:31.067Z,27.39
2022-10-28T10:44:31.070Z,27.40
2022-10-28T10:45:31.070Z,27.41
2022-10-28T10:46:31.073Z,27.40
2022-10-28T10:47:31.069Z,27.47
2022-10-28T10:48:31.071Z,27.49
2022-10-28T10:49:31.072Z,27.37
2022-10-28T10:51:31.077Z,27.44
2022-10-28T10:52:31.077Z,27.47
2022-10-28T10:53:31.074Z,27.47
2022-10-28T10:54:31.073Z,27.39
2022-10-28T10:55:31.075Z,27.46
2022-10-28T10:56:31.079Z,27.47
2022-10-28T10:57:31.074Z,27.47
2022-10-28T10:58:31.097Z,27.49
2022-10-28T10:59:31.074Z,27.50
2022-10-28T11:00:31.077Z,27.49
2022-10-28T11:01:31.247Z,27.57
2022-10-28T11:02:31.313Z,27.55
2022-10-28T11:03:31.077Z,27.51
2022-10-28T11:04:31.079Z,27.50
2022-10-28T11:05:37.721Z,27.62
2022-10-28T11:06:31.081Z,27.55
2022-10-28T11:07:31.079Z,27.55
2022-10-28T11:08:31.085Z,27.57
2022-10-28T11:09:31.081Z,27.59
2022-10-28T11:10:31.079Z,27.54
2022-10-28T11:11:31.081Z,27.62
2022-10-28T11:12:31.083Z,27.60
2022-10-28T11:13:31.083Z,27.65
2022-10-28T11:14:31.104Z,27.60
2022-10-28T11:15:31.081Z,27.60
2022-10-28T11:16:31.087Z,27.55
2022-10-28T11:18:31.084Z,27.65
2022-10-28T11:19:31.089Z,27.65
2022-10-28T11:20:31.108Z,27.63
2022-10-28T11:21:31.086Z,27.72
2022-10-28T11:22:31.088Z,27.70
2022-10-28T11:23:31.090Z,27.63
2022-10-28T11:24:31.088Z,27.74
2022-10-28T11:25:31.088Z,27.70
2022-10-28T11:26:31.089Z,27.72
2022-10-28T11:27:31.089Z,27.69
2022-10-28T11:28:31.091Z,27.77
2022-10-28T11:29:31.092Z,27.74
2022-10-28T11:30:31.112Z,27.70
2022-10-28T11:31:31.092Z,27.82
2022-10-28T11:32:31.093Z,27.78
2022-10-28T11:33:31.247Z,27.78
2022-10-28T11:34:31.096Z,27.87
2022-10-28T11:35:31.096Z,27.79
2022-10-28T11:36:31.096Z,27.82
2022-10-28T11:37:31.101Z,27.81
2022-10-28T11:38:31.098Z,27.87
2022-10-28T11:39:31.098Z,27.84
2022-10-28T11:40:31.099Z,27.85
2022-10-28T11:41:31.099Z,27.81
2022-10-28T11:42:31.099Z,27.85
2022-10-28T11:43:31.101Z,27.92
2022-10-28T11:44:31.142Z,27.84
2022-10-28T11:45:31.101Z,27.82
2022-10-28T11:46:31.125Z,27.87
2022-10-28T11:47:31.105Z,27.84
2022-10-28T11:48:31.105Z,27.85
2022-10-28T11:49:31.106Z,27.88
2022-10-28T11:50:31.107Z,27.94
2022-10-28T11:51:31.114Z,27.85
2022-10-28T11:52:31.107Z,27.92
2022-10-28T11:53:31.108Z,27.93
2022-10-28T11:54:31.108Z,27.94
2022-10-28T11:55:31.108Z,27.92
2022-10-28T11:56:31.108Z,27.92
2022-10-28T11:57:31.109Z,27.93
2022-10-28T11:58:31.112Z,27.93
2022-10-28T11:59:31.111Z,27.94
2022-10-28T12:00:31.113Z,27.87
2022-10-28T12:01:31.164Z,27.96
2022-10-28T12:02:31.282Z,27.94
2022-10-28T12:03:31.113Z,27.92
2022-10-28T12:04:31.117Z,27.93
2022-10-28T12:05:31.117Z,27.88
2022-10-28T12:06:31.115Z,27.97
2022-10-28T12:07:31.116Z,27.92
2022-10-28T12:08:31.118Z,27.92
2022-10-28T12:09:31.118Z,27.93
2022-10-28T12:10:31.120Z,27.92
2022-10-28T12:11:31.123Z,28.03
2022-10-28T12:12:31.121Z,28.02
2022-10-28T12:13:31.120Z,28.03
2022-10-28T12:14:31.121Z,27.97
2022-10-28T12:15:31.124Z,28.06
2022-10-28T12:16:31.125Z,27.97
2022-10-28T12:17:31.124Z,27.94
2022-10-28T12:18:31.149Z,28.06
2022-10-28T12:19:31.124Z,27.99
2022-10-28T12:20:31.134Z,27.94
2022-10-28T12:21:31.284Z,28.04
2022-10-28T12:22:31.129Z,27.94
2022-10-28T12:23:31.129Z,28.03
2022-10-28T12:24:31.173Z,28.12
2022-10-28T12:25:31.131Z,28.03
2022-10-28T12:26:31.131Z,28.04
2022-10-28T12:27:31.132Z,28.09
2022-10-28T12:28:31.133Z,28.00
2022-10-28T12:29:31.133Z,28.07
2022-10-28T12:30:31.135Z,28.06
2022-10-28T12:31:31.137Z,28.03
2022-10-28T12:32:31.137Z,28.00
2022-10-28T12:33:31.136Z,28.07
2022-10-28T12:34:31.222Z,28.19
2022-10-28T12:35:31.137Z,28.00
2022-10-28T12:36:31.146Z,28.00
2022-10-28T12:37:31.141Z,28.11
2022-10-28T12:38:31.190Z,28.03
2022-10-28T12:39:31.141Z,28.09
2022-10-28T12:40:31.144Z,28.12
2022-10-28T12:41:31.195Z,28.15
2022-10-28T12:42:31.147Z,28.12
2022-10-28T12:43:31.142Z,28.15
2022-10-28T12:44:31.146Z,28.12
2022-10-28T12:45:31.145Z,28.15
2022-10-28T12:46:31.147Z,28.07
2022-10-28T12:47:31.148Z,28.19
2022-10-28T12:48:31.149Z,28.14
2022-10-28T12:49:31.148Z,28.14
2022-10-28T12:50:31.173Z,28.17
2022-10-28T12:51:31.154Z,28.22
2022-10-28T12:52:31.152Z,28.18
2022-10-28T12:53:31.153Z,28.18
2022-10-28T12:54:31.166Z,28.14
2022-10-28T12:55:31.156Z,28.15
2022-10-28T12:56:31.242Z,28.15
2022-10-28T12:57:31.157Z,28.21
2022-10-28T12:58:31.157Z,28.17
2022-10-28T12:59:31.158Z,28.21